createdAt,value
2023-03-27T00:01:11.960Z,2.78
2023-03-27T00:03:40.162Z,2.08
2023-03-27T00:06:17.580Z,2.13
2023-03-27T00:08:46.492Z,3.35
2023-03-27T00:11:14.320Z,1.98
2023-03-27T00:13:49.376Z,3.13
2023-03-27T00:16:17.946Z,1.48
2023-03-27T00:18:45.897Z,2.08
2023-03-27T00:21:12.856Z,2.25
2023-03-27T00:23:39.365Z,2.80
2023-03-27T00:26:06.224Z,2.75
2023-03-27T00:28:32.932Z,2.20
2023-03-27T00:31:00.150Z,3.00
2023-03-27T00:33:27.208Z,1.85
2023-03-27T00:35:54.220Z,2.90
2023-03-27T00:38:22.428Z,2.30
2023-03-27T00:40:51.049Z,3.05
2023-03-27T00:43:30.626Z,2.60
2023-03-27T00:46:33.744Z,2.28
2023-03-27T00:49:04.365Z,2.75
2023-03-27T00:51:31.258Z,2.63
2023-03-27T00:53:58.316Z,2.60
2023-03-27T00:56:25.132Z,3.78
2023-03-27T00:59:00.264Z,3.00
2023-03-27T01:01:29.019Z,2.38
2023-03-27T01:03:59.557Z,3.03
2023-03-27T01:06:27.350Z,2.22
2023-03-27T01:08:54.219Z,2.28
2023-03-27T01:11:54.894Z,1.45
2023-03-27T01:14:32.356Z,1.85
2023-03-27T01:17:28.256Z,2.33
2023-03-27T01:20:14.363Z,1.77
2023-03-27T01:22:44.043Z,2.78
2023-03-27T01:25:28.698Z,1.95
2023-03-27T01:28:14.249Z,2.53
2023-03-27T01:31:08.007Z,2.05
2023-03-27T01:33:47.036Z,1.58
2023-03-27T01:36:40.345Z,2.47
2023-03-27T01:39:27.389Z,2.13
2023-03-27T01:42:15.943Z,1.85
2023-03-27T01:44:49.178Z,2.42
2023-03-27T01:47:34.313Z,2.20
2023-03-27T01:50:27.248Z,2.55
2023-03-27T01:52:59.932Z,2.15
2023-03-27T01:55:31.495Z,3.70
2023-03-27T01:58:03.279Z,2.05
2023-03-27T02:00:52.046Z,1.85
2023-03-27T02:03:27.089Z,2.83
2023-03-27T02:05:58.906Z,2.92
2023-03-27T02:08:37.827Z,2.75
2023-03-27T02:11:04.765Z,1.50
2023-03-27T02:13:44.482Z,2.63
2023-03-27T02:16:16.616Z,2.22
2023-03-27T02:18:49.481Z,2.10
2023-03-27T02:21:16.189Z,1.90
2023-03-27T02:23:43.584Z,1.63
2023-03-27T02:26:12.978Z,1.85
2023-03-27T02:29:33.776Z,1.95
2023-03-27T02:32:25.080Z,1.70
2023-03-27T02:35:00.494Z,2.03
2023-03-27T02:37:51.818Z,1.70
2023-03-27T02:40:23.865Z,1.60
2023-03-27T02:43:01.252Z,2.70
2023-03-27T02:45:56.948Z,1.25
2023-03-27T02:48:34.331Z,1.20
2023-03-27T02:51:26.911Z,1.92
2023-03-27T02:53:57.453Z,1.67
2023-03-27T02:56:26.570Z,2.20
2023-03-27T02:59:03.870Z,1.17
2023-03-27T03:01:32.796Z,2.30
2023-03-27T03:04:03.738Z,2.08
2023-03-27T03:06:31.152Z,1.92
2023-03-27T03:09:03.707Z,2.30
2023-03-27T03:11:31.279Z,1.58
2023-03-27T03:13:57.971Z,1.52
2023-03-27T03:16:24.673Z,1.50
2023-03-27T03:18:51.905Z,1.98
2023-03-27T03:21:18.818Z,2.10
2023-03-27T03:23:58.542Z,2.25
2023-03-27T03:26:26.640Z,1.95
2023-03-27T03:29:00.309Z,2.30
2023-03-27T03:31:43.124Z,2.13
2023-03-27T03:34:16.578Z,1.70
2023-03-27T03:36:44.934Z,1.27
2023-03-27T03:39:12.706Z,1.77
2023-03-27T03:41:39.541Z,1.90
2023-03-27T03:44:06.413Z,2.10
2023-03-27T03:46:33.909Z,1.92
2023-03-27T03:49:00.706Z,1.85
2023-03-27T03:51:28.305Z,1.88
2023-03-27T03:53:54.834Z,1.83
2023-03-27T03:56:21.440Z,1.83
2023-03-27T03:58:48.178Z,1.75
2023-03-27T04:01:14.756Z,2.42
2023-03-27T04:03:41.659Z,1.88
2023-03-27T04:06:08.805Z,1.60
2023-03-27T04:08:35.378Z,1.50
2023-03-27T04:11:02.012Z,1.23
2023-03-27T04:13:28.558Z,1.73
2023-03-27T04:15:55.520Z,1.58
2023-03-27T04:18:32.414Z,1.63
2023-03-27T04:20:59.578Z,1.98
2023-03-27T04:23:30.393Z,2.20
2023-03-27T04:26:02.007Z,1.52
2023-03-27T04:28:34.832Z,1.35
2023-03-27T04:31:06.437Z,2.90
2023-03-27T04:33:35.498Z,1.65
2023-03-27T04:36:06.472Z,1.95
2023-03-27T04:38:39.247Z,1.80
2023-03-27T04:41:07.125Z,1.10
2023-03-27T04:43:40.092Z,1.40
2023-03-27T04:46:07.818Z,1.75
2023-03-27T04:48:35.356Z,1.95
2023-03-27T04:51:01.893Z,1.75
2023-03-27T04:53:30.365Z,1.40
2023-03-27T04:55:57.332Z,2.38
2023-03-27T04:58:25.822Z,1.65
2023-03-27T05:00:56.117Z,2.00
2023-03-27T05:03:27.958Z,2.38
2023-03-27T05:05:54.615Z,2.13
2023-03-27T05:08:21.653Z,1.38
2023-03-27T05:10:48.364Z,2.60
2023-03-27T05:13:14.958Z,1.38
2023-03-27T05:15:41.805Z,1.92
2023-03-27T05:18:09.306Z,1.40
2023-03-27T05:20:37.268Z,2.05
2023-03-27T05:23:03.901Z,2.38
2023-03-27T05:25:32.196Z,1.50
2023-03-27T05:28:00.447Z,1.95
2023-03-27T05:30:27.988Z,1.50
2023-03-27T05:32:54.667Z,1.73
2023-03-27T05:35:23.800Z,2.65
2023-03-27T05:37:53.127Z,2.53
2023-03-27T05:40:22.543Z,1.88
2023-03-27T05:42:51.222Z,2.33
2023-03-27T05:45:18.607Z,2.17
2023-03-27T05:47:53.492Z,2.38
2023-03-27T05:50:22.920Z,1.85
2023-03-27T05:52:58.364Z,2.50
2023-03-27T05:55:27.743Z,1.92
2023-03-27T05:57:55.013Z,1.83
2023-03-27T06:00:25.804Z,2.13
2023-03-27T06:02:57.535Z,1.92
2023-03-27T06:05:26.800Z,2.25
2023-03-27T06:07:53.512Z,1.73
2023-03-27T06:10:20.685Z,1.98
2023-03-27T06:12:50.285Z,2.20
2023-03-27T06:15:16.915Z,1.75
2023-03-27T06:17:43.918Z,2.17
2023-03-27T06:20:12.822Z,2.30
2023-03-27T06:22:46.049Z,2.28
2023-03-27T06:25:13.694Z,3.28
2023-03-27T06:27:45.489Z,1.80
2023-03-27T06:30:17.516Z,2.75
2023-03-27T06:32:49.482Z,2.45
2023-03-27T06:35:16.512Z,3.20
2023-03-27T06:37:50.660Z,2.28
2023-03-27T06:40:23.763Z,2.28
2023-03-27T06:42:54.670Z,2.08
2023-03-27T06:45:22.584Z,2.28
2023-03-27T06:47:55.197Z,2.95
2023-03-27T06:50:25.266Z,2.50
2023-03-27T06:52:52.138Z,2.65
2023-03-27T06:55:21.032Z,2.72
2023-03-27T06:57:50.024Z,2.60
2023-03-27T07:00:24.175Z,2.70
2023-03-27T07:02:54.496Z,4.85
2023-03-27T07:05:21.405Z,5.68
2023-03-27T07:07:49.436Z,2.60
2023-03-27T07:10:16.767Z,1.90
2023-03-27T07:12:49.475Z,2.33
2023-03-27T07:15:17.839Z,2.05
2023-03-27T07:17:52.041Z,1.63
2023-03-27T07:20:19.567Z,2.08
2023-03-27T07:22:46.148Z,2.03
2023-03-27T07:25:13.380Z,2.92
2023-03-27T07:27:40.020Z,2.05
2023-03-27T07:30:08.196Z,2.65
2023-03-27T07:32:37.920Z,3.22
2023-03-27T07:35:08.548Z,2.97
2023-03-27T07:37:38.277Z,3.03
2023-03-27T07:40:07.627Z,2.20
2023-03-27T07:42:34.726Z,2.55
2023-03-27T07:45:04.412Z,2.88
2023-03-27T07:47:31.450Z,2.90
2023-03-27T07:49:58.113Z,3.50
2023-03-27T07:52:24.649Z,3.33
2023-03-27T07:54:51.554Z,2.72
2023-03-27T07:57:18.249Z,2.65
2023-03-27T07:59:45.626Z,1.73
2023-03-27T08:02:12.361Z,2.42
2023-03-27T08:04:39.142Z,2.85
2023-03-27T08:07:05.729Z,3.08
2023-03-27T08:09:32.330Z,2.53
2023-03-27T08:11:58.831Z,2.35
2023-03-27T08:14:26.366Z,2.92
2023-03-27T08:16:54.387Z,3.17
2023-03-27T08:19:25.248Z,2.38
2023-03-27T08:21:51.912Z,1.55
2023-03-27T08:24:18.532Z,2.78
2023-03-27T08:26:45.647Z,2.40
2023-03-27T08:29:12.264Z,2.50
2023-03-27T08:31:39.563Z,2.90
2023-03-27T08:34:06.190Z,3.50
2023-03-27T08:36:34.489Z,2.40
2023-03-27T08:39:03.004Z,2.60
2023-03-27T08:41:38.540Z,3.33
2023-03-27T08:44:11.684Z,2.47
2023-03-27T08:46:53.480Z,2.10
2023-03-27T08:49:21.909Z,2.03
2023-03-27T08:51:56.923Z,3.58
2023-03-27T08:54:29.827Z,2.33
2023-03-27T08:56:57.064Z,3.22
2023-03-27T08:59:27.648Z,2.42
2023-03-27T09:02:12.581Z,2.03
2023-03-27T09:05:00.866Z,1.80
2023-03-27T09:07:54.026Z,1.13
2023-03-27T09:10:51.912Z,1.67
2023-03-27T09:13:47.090Z,1.70
2023-03-27T09:16:34.263Z,2.30
2023-03-27T09:19:22.668Z,1.52
2023-03-27T09:21:56.415Z,1.30
2023-03-27T09:24:28.280Z,1.70
2023-03-27T09:27:06.880Z,1.20
2023-03-27T09:29:38.122Z,1.55
2023-03-27T09:32:14.711Z,1.30
2023-03-27T09:34:41.945Z,1.20
2023-03-27T09:37:14.534Z,1.30
2023-03-27T09:39:51.668Z,1.27
2023-03-27T09:42:26.173Z,1.40
2023-03-27T09:47:34.606Z,1.00
2023-03-27T09:50:16.201Z,1.02
2023-03-27T09:52:43.282Z,1.52
2023-03-27T09:55:27.064Z,1.50
2023-03-27T09:58:00.152Z,1.23
2023-03-27T10:00:34.545Z,1.10
2023-03-27T10:03:17.036Z,1.17
2023-03-27T10:05:45.201Z,1.00
2023-03-27T10:08:27.168Z,0.82
2023-03-27T10:10:58.646Z,1.48
2023-03-27T10:13:27.734Z,0.98
2023-03-27T10:16:06.123Z,0.88
2023-03-27T10:18:35.458Z,0.70
2023-03-27T10:21:09.230Z,0.73
2023-03-27T10:23:45.315Z,1.10
2023-03-27T10:26:16.953Z,0.80
2023-03-27T10:28:49.055Z,0.80
2023-03-27T10:31:38.097Z,0.88
2023-03-27T10:34:08.221Z,0.57
2023-03-27T10:36:40.580Z,0.77
2023-03-27T10:39:11.773Z,1.42
2023-03-27T10:41:39.498Z,0.68
2023-03-27T10:44:15.601Z,1.00
2023-03-27T10:46:42.881Z,1.30
2023-03-27T10:49:21.653Z,0.65
2023-03-27T10:52:06.682Z,0.50
2023-03-27T10:54:43.647Z,0.57
2023-03-27T10:57:14.906Z,0.80
2023-03-27T10:59:53.875Z,0.60
2023-03-27T11:02:40.083Z,0.55
2023-03-27T11:05:14.144Z,0.60
2023-03-27T11:07:43.303Z,0.70
2023-03-27T11:10:34.246Z,1.00
2023-03-27T11:13:29.454Z,0.40
2023-03-27T11:18:32.685Z,0.65
2023-03-27T11:21:03.505Z,0.55
2023-03-27T11:23:38.593Z,0.60
2023-03-27T11:26:07.388Z,0.95
2023-03-27T11:28:43.614Z,0.70
2023-03-27T11:31:38.115Z,1.25
2023-03-27T11:34:28.523Z,0.70
2023-03-27T11:37:09.756Z,0.50
2023-03-27T11:40:23.890Z,0.65
2023-03-27T11:42:51.127Z,0.60
2023-03-27T11:45:23.097Z,0.80
2023-03-27T11:48:40.328Z,0.60
2023-03-27T11:51:23.112Z,0.52
2023-03-27T11:54:07.362Z,0.77
2023-03-27T11:56:54.627Z,0.50
2023-03-27T11:59:42.998Z,0.70
2023-03-27T12:02:27.962Z,0.60
2023-03-27T12:05:01.845Z,1.35
2023-03-27T12:07:36.416Z,0.57
2023-03-27T12:10:29.134Z,1.63
2023-03-27T12:13:14.345Z,0.88
2023-03-27T12:16:12.589Z,0.68
2023-03-27T12:19:26.902Z,0.30
2023-03-27T12:22:31.564Z,0.63
2023-03-27T12:25:15.408Z,0.75
2023-03-27T12:28:23.082Z,0.60
2023-03-27T12:30:57.528Z,0.55
2023-03-27T12:33:32.055Z,0.63
2023-03-27T12:38:28.973Z,0.52
2023-03-27T12:41:13.987Z,0.80
2023-03-27T12:43:47.891Z,0.40
2023-03-27T12:46:23.324Z,0.70
2023-03-27T12:48:56.547Z,0.40
2023-03-27T12:51:43.703Z,0.50
2023-03-27T12:54:26.779Z,0.70
2023-03-27T12:57:15.120Z,0.43
2023-03-27T13:00:09.409Z,0.40
2023-03-27T13:02:51.227Z,0.60
2023-03-27T13:05:45.216Z,0.68
2023-03-27T13:08:18.385Z,0.73
2023-03-27T13:11:00.717Z,0.40
2023-03-27T13:13:49.249Z,0.52
2023-03-27T13:16:38.446Z,0.32
2023-03-27T13:19:16.889Z,0.70
2023-03-27T13:22:03.821Z,1.13
2023-03-27T13:24:59.996Z,0.43
2023-03-27T13:28:01.887Z,0.50
2023-03-27T13:30:51.672Z,0.60
2023-03-27T13:33:30.572Z,0.50
2023-03-27T13:35:57.360Z,0.40
2023-03-27T13:38:47.390Z,0.45
2023-03-27T13:41:44.728Z,0.68
2023-03-27T13:44:45.351Z,0.55
2023-03-27T13:47:31.442Z,0.65
2023-03-27T13:50:29.000Z,0.40
2023-03-27T13:53:14.360Z,0.40
2023-03-27T13:55:56.886Z,0.80
2023-03-27T13:58:55.572Z,0.28
2023-03-27T14:01:28.126Z,0.50
2023-03-27T14:04:21.421Z,0.90
2023-03-27T14:07:08.367Z,1.13
2023-03-27T14:10:14.173Z,0.40
2023-03-27T14:13:09.069Z,0.50
2023-03-27T14:15:50.379Z,0.52
2023-03-27T14:19:01.354Z,0.43
2023-03-27T14:21:38.366Z,0.40
2023-03-27T14:24:24.566Z,0.50
2023-03-27T14:26:53.864Z,0.38
2023-03-27T14:29:21.604Z,0.43
2023-03-27T14:31:49.275Z,0.52
2023-03-27T14:34:33.223Z,0.50
2023-03-27T14:37:36.792Z,0.57
2023-03-27T14:40:20.079Z,0.55
2023-03-27T14:42:49.466Z,0.57
2023-03-27T14:45:23.926Z,0.52
2023-03-27T14:50:19.799Z,0.65
2023-03-27T14:52:52.162Z,0.50
2023-03-27T14:55:19.480Z,0.50
2023-03-27T14:57:50.020Z,0.63
2023-03-27T15:00:21.383Z,0.50
2023-03-27T15:02:52.232Z,0.57
2023-03-27T15:05:22.646Z,0.40
2023-03-27T15:07:50.162Z,0.40
2023-03-27T15:10:20.656Z,1.35
2023-03-27T15:12:47.789Z,0.63
2023-03-27T15:15:42.991Z,0.70
2023-03-27T15:18:32.833Z,0.98
2023-03-27T15:21:07.788Z,0.50
2023-03-27T15:23:43.513Z,0.63
2023-03-27T15:26:18.577Z,1.45
2023-03-27T15:29:13.744Z,0.50
2023-03-27T15:31:43.573Z,0.40
2023-03-27T15:34:25.106Z,0.65
2023-03-27T15:36:58.204Z,0.55
2023-03-27T15:39:26.571Z,0.50
2023-03-27T15:42:02.655Z,0.60
2023-03-27T15:44:32.717Z,0.70
2023-03-27T15:47:01.117Z,0.63
2023-03-27T15:49:29.312Z,0.60
2023-03-27T15:51:57.681Z,0.68
2023-03-27T15:54:35.782Z,0.70
2023-03-27T15:57:10.488Z,0.60
2023-03-27T15:59:51.886Z,0.45
2023-03-27T16:02:21.016Z,0.85
2023-03-27T16:04:58.853Z,0.47
2023-03-27T16:07:56.759Z,0.40
2023-03-27T16:10:32.628Z,1.02
2023-03-27T16:13:02.967Z,0.50
2023-03-27T16:15:33.781Z,0.43
2023-03-27T16:18:33.958Z,0.95
2023-03-27T16:21:13.357Z,0.40
2023-03-27T16:23:40.828Z,0.30
2023-03-27T16:26:12.668Z,0.57
2023-03-27T16:28:40.592Z,0.35
2023-03-27T16:31:18.761Z,0.43
2023-03-27T16:33:48.172Z,0.35
2023-03-27T16:36:18.692Z,0.45
2023-03-27T16:38:45.269Z,0.40
2023-03-27T16:41:17.009Z,0.63
2023-03-27T16:43:44.788Z,0.40
2023-03-27T16:46:26.802Z,0.70
2023-03-27T16:48:54.267Z,0.50
2023-03-27T16:51:24.777Z,0.40
2023-03-27T16:53:53.005Z,0.60
2023-03-27T16:56:20.859Z,0.40
2023-03-27T16:58:48.203Z,0.30
2023-03-27T17:01:14.846Z,0.43
2023-03-27T17:03:41.538Z,0.30
2023-03-27T17:06:10.381Z,0.55
2023-03-27T17:08:37.472Z,0.40
2023-03-27T17:11:09.591Z,0.60
2023-03-27T17:13:36.749Z,0.45
2023-03-27T17:16:04.568Z,0.30
2023-03-27T17:18:31.519Z,0.60
2023-03-27T17:20:58.292Z,0.20
2023-03-27T17:23:25.301Z,0.40
2023-03-27T17:25:52.188Z,0.50
2023-03-27T17:28:19.150Z,0.57
2023-03-27T17:30:56.397Z,0.65
2023-03-27T17:33:28.627Z,0.45
2023-03-27T17:35:57.237Z,0.80
2023-03-27T17:38:24.402Z,0.65
2023-03-27T17:40:51.569Z,0.70
2023-03-27T17:43:18.379Z,0.60
2023-03-27T17:45:45.443Z,0.75
2023-03-27T17:48:12.120Z,0.60
2023-03-27T17:50:39.515Z,0.60
2023-03-27T17:53:06.917Z,0.50
2023-03-27T17:55:36.780Z,0.40
2023-03-27T17:58:09.452Z,0.50
2023-03-27T18:00:38.551Z,0.50
2023-03-27T18:03:06.708Z,0.82
2023-03-27T18:05:41.002Z,0.77
2023-03-27T18:08:10.014Z,1.13
2023-03-27T18:10:37.692Z,1.05
2023-03-27T18:13:04.393Z,0.70
2023-03-27T18:15:31.108Z,0.57
2023-03-27T18:17:57.685Z,1.38
2023-03-27T18:20:24.332Z,0.50
2023-03-27T18:22:50.888Z,1.23
2023-03-27T18:25:17.433Z,0.50
2023-03-27T18:27:44.987Z,0.88
2023-03-27T18:30:14.507Z,0.90
2023-03-27T18:32:43.112Z,4.03
2023-03-27T18:35:16.158Z,1.27
2023-03-27T18:37:43.780Z,0.98
2023-03-27T18:40:12.665Z,1.00
2023-03-27T18:42:40.911Z,1.10
2023-03-27T18:45:09.534Z,1.00
2023-03-27T18:47:36.542Z,1.17
2023-03-27T18:50:05.159Z,0.95
2023-03-27T18:52:32.227Z,1.00
2023-03-27T18:54:58.895Z,0.98
2023-03-27T18:57:26.473Z,1.10
2023-03-27T18:59:55.279Z,0.70
2023-03-27T19:02:22.191Z,0.82
2023-03-27T19:04:48.987Z,0.80
2023-03-27T19:07:16.847Z,1.27
2023-03-27T19:09:43.847Z,1.45
2023-03-27T19:12:11.183Z,1.70
2023-03-27T19:14:37.829Z,1.58
2023-03-27T19:17:05.026Z,1.13
2023-03-27T19:19:32.116Z,1.50
2023-03-27T19:21:58.761Z,1.88
2023-03-27T19:24:25.738Z,1.45
2023-03-27T19:26:52.974Z,1.55
2023-03-27T19:29:20.384Z,1.88
2023-03-27T19:31:47.008Z,2.28
2023-03-27T19:34:13.847Z,1.92
2023-03-27T19:36:40.541Z,2.65
2023-03-27T19:39:07.198Z,1.73
2023-03-27T19:41:33.788Z,1.88
2023-03-27T19:44:00.662Z,2.55
2023-03-27T19:46:29.182Z,4.38
2023-03-27T19:48:56.003Z,4.22
2023-03-27T19:51:23.510Z,3.88
2023-03-27T19:53:50.092Z,3.22
2023-03-27T19:56:17.009Z,1.90
2023-03-27T19:58:43.604Z,1.67
2023-03-27T20:01:10.196Z,2.33
2023-03-27T20:03:38.497Z,1.60
2023-03-27T20:06:11.957Z,2.08
2023-03-27T20:08:41.117Z,2.60
2023-03-27T20:11:08.802Z,2.70
2023-03-27T20:13:48.984Z,3.30
2023-03-27T20:16:23.810Z,3.80
2023-03-27T20:18:55.247Z,4.20
2023-03-27T20:21:24.738Z,4.60
2023-03-27T20:23:53.954Z,4.88
2023-03-27T20:26:22.543Z,4.28
2023-03-27T20:28:50.505Z,5.20
2023-03-27T20:31:18.825Z,5.40
2023-03-27T20:33:46.642Z,5.13
2023-03-27T20:36:13.936Z,5.78
2023-03-27T20:38:40.653Z,5.57
2023-03-27T20:41:07.346Z,6.70
2023-03-27T20:43:38.558Z,6.97
2023-03-27T20:46:05.400Z,7.00
2023-03-27T20:48:40.538Z,8.32
2023-03-27T20:51:14.721Z,8.10
2023-03-27T20:53:45.828Z,8.82
2023-03-27T20:56:14.281Z,6.70
2023-03-27T20:58:42.222Z,7.50
2023-03-27T21:01:10.642Z,7.20
2023-03-27T21:03:41.880Z,6.75
2023-03-27T21:06:12.150Z,7.43
2023-03-27T21:08:39.131Z,6.65
2023-03-27T21:11:07.151Z,7.30
2023-03-27T21:13:34.324Z,6.93
2023-03-27T21:16:01.743Z,5.40
2023-03-27T21:18:28.728Z,6.88
2023-03-27T21:20:55.540Z,5.45
2023-03-27T21:23:22.237Z,6.63
2023-03-27T21:25:51.701Z,5.68
2023-03-27T21:28:18.466Z,5.25
2023-03-27T21:30:46.472Z,6.25
2023-03-27T21:33:16.204Z,5.75
2023-03-27T21:35:45.747Z,5.65
2023-03-27T21:38:13.780Z,5.72
2023-03-27T21:40:40.990Z,5.40
2023-03-27T21:43:09.152Z,5.25
2023-03-27T21:45:36.349Z,5.57
2023-03-27T21:48:03.435Z,4.90
2023-03-27T21:50:30.306Z,5.97
2023-03-27T21:52:57.156Z,4.10
2023-03-27T21:55:24.008Z,3.33
2023-03-27T21:57:51.909Z,4.75
2023-03-27T22:00:18.856Z,3.88
2023-03-27T22:02:45.550Z,3.95
2023-03-27T22:05:12.083Z,4.85
2023-03-27T22:07:38.614Z,3.75
2023-03-27T22:10:06.520Z,4.07
2023-03-27T22:12:37.657Z,4.38
2023-03-27T22:15:06.980Z,3.13
2023-03-27T22:17:36.689Z,5.40
2023-03-27T22:20:07.610Z,4.03
2023-03-27T22:22:35.845Z,4.47
2023-03-27T22:25:02.703Z,5.68
2023-03-27T22:27:30.237Z,9.88
2023-03-27T22:29:56.787Z,4.82
2023-03-27T22:32:23.504Z,12.13
2023-03-27T22:34:50.163Z,10.45
2023-03-27T22:37:17.773Z,8.93
2023-03-27T22:39:44.337Z,5.43
2023-03-27T22:42:10.903Z,4.35
2023-03-27T22:44:37.831Z,5.32
2023-03-27T22:47:04.544Z,5.47
2023-03-27T22:49:31.368Z,4.25
2023-03-27T22:51:57.939Z,4.25
2023-03-27T22:54:24.593Z,6.38
2023-03-27T22:56:51.346Z,5.15
2023-03-27T22:59:17.918Z,3.80
2023-03-27T23:01:44.825Z,3.53
2023-03-27T23:04:11.438Z,3.88
2023-03-27T23:06:38.845Z,3.65
2023-03-27T23:09:05.399Z,4.10
2023-03-27T23:11:31.976Z,4.47
2023-03-27T23:13:58.520Z,6.20
2023-03-27T23:16:25.414Z,5.78
2023-03-27T23:18:52.020Z,6.75
2023-03-27T23:21:18.572Z,7.10
2023-03-27T23:23:46.094Z,6.38
2023-03-27T23:26:12.966Z,7.03
2023-03-27T23:28:41.581Z,6.80
2023-03-27T23:31:14.699Z,6.30
2023-03-27T23:33:44.011Z,6.32
2023-03-27T23:36:13.965Z,5.22
2023-03-27T23:38:42.094Z,6.75
2023-03-27T23:41:10.693Z,9.85
2023-03-27T23:43:37.536Z,8.55
2023-03-27T23:46:08.650Z,5.53
2023-03-27T23:48:35.434Z,4.35
2023-03-27T23:51:02.510Z,4.13
2023-03-27T23:53:30.242Z,5.15
2023-03-27T23:55:58.565Z,6.05
2023-03-27T23:58:28.785Z,4.95
